createdAt,value
2023-01-05T12:39:18.453Z,10.2
2023-01-05T18:43:02.281Z,9.5
2023-01-05T18:45:40.004Z,7.3
2023-01-05T18:50:38.072Z,8.7
2023-01-05T18:55:38.312Z,6.3
2023-01-05T19:00:38.084Z,9.1
2023-01-05T19:05:38.098Z,8.2
2023-01-05T19:10:38.111Z,6.3
2023-01-05T19:15:38.198Z,5.6
2023-01-05T19:20:38.132Z,8.2
2023-01-05T19:25:38.133Z,5.7
2023-01-05T19:30:38.145Z,4.6
2023-01-05T19:35:38.161Z,5.0
2023-01-05T19:40:38.225Z,8.6
2023-01-05T19:45:38.179Z,7.1
2023-01-05T19:50:38.248Z,5.4
2023-01-05T19:55:38.343Z,5.3
2023-01-05T20:00:38.205Z,5.3
2023-01-05T20:05:38.230Z,5.4
2023-01-05T20:10:38.222Z,5.4
2023-01-05T20:15:38.318Z,5.8
2023-01-05T20:20:39.431Z,5.7
2023-01-05T20:25:38.261Z,5.2
2023-01-05T20:30:38.260Z,5.0
2023-01-05T20:35:38.279Z,4.4
2023-01-05T20:40:38.285Z,10.4
2023-01-05T20:45:38.289Z,6.4
2023-01-05T20:50:38.297Z,6.7
2023-01-05T20:55:38.311Z,5.8
2023-01-05T21:01:10.105Z,4.2
2023-01-05T21:05:38.348Z,4.1
2023-01-05T21:10:38.340Z,3.6
2023-01-05T21:15:38.361Z,4.6
2023-01-05T21:20:38.366Z,4.0
2023-01-05T21:26:06.583Z,5.4
2023-01-05T21:30:38.389Z,4.7
2023-01-05T21:35:38.392Z,5.5
2023-01-05T21:40:38.442Z,4.9
2023-01-05T21:45:38.450Z,3.5
2023-01-05T21:50:38.413Z,3.8
2023-01-05T21:55:38.428Z,4.0
2023-01-05T22:00:38.481Z,4.2
2023-01-05T22:05:38.448Z,4.0
2023-01-05T22:10:38.457Z,3.3
2023-01-05T22:15:38.466Z,4.3
2023-01-05T22:20:38.479Z,2.5
2023-01-05T22:25:38.492Z,3.7
2023-01-05T22:30:38.502Z,2.6
2023-01-05T22:35:38.513Z,3.7
2023-01-05T22:40:38.673Z,2.8
2023-01-05T22:45:38.586Z,2.4
2023-01-05T22:50:38.542Z,1.4
2023-01-05T22:55:38.538Z,3.6
2023-01-05T23:00:38.557Z,2.1
2023-01-05T23:05:38.586Z,2.3
2023-01-05T23:10:38.588Z,2.9
2023-01-05T23:15:38.586Z,3.3
2023-01-05T23:20:38.604Z,2.9
2023-01-05T23:25:38.604Z,2.9
2023-01-05T23:30:38.627Z,2.9
2023-01-05T23:35:38.671Z,2.9
2023-01-05T23:40:38.697Z,2.6
2023-01-05T23:45:38.719Z,4.3
2023-01-05T23:50:38.658Z,2.3
2023-01-05T23:55:38.676Z,3.0
